Latest Weather Observations for Nowra

IDN60801

Issued at 5:03 am EST Friday 28 August 2015 (issued every 30 minutes, with the page automatically refreshed every 10 minutes)

About weather observations | Map of weather stations | Latest weather observations for NSW | Other Formats
Station Details ID: 068072 Name: NOWRA RAN AIR STATION AWS Lat: -34.95 Lon: 150.54 Height: 109.0 m
Data from the previous 72 hours. | See also: Recent months at Nowra
Date/Time
EST
Temp
°C
App
Temp
°C
Dew
Point
Rel
Hum
%
Delta-T
°C
Wind Press
QNH
hPa
Press
MSL
hPa
Rain
since 9 am
mm
Dir
 
Spd
km/h
Gust
km/h
Spd
kts
Gust
kts
28/04:30am 11.6 5.3 5.5 66 2.8 WNW 28 37 15 20 1015.5 - 0.0
28/04:00am 11.6 4.9 5.7 67 2.8 WNW 30 39 16 21 1015.2 - 0.0
28/03:30am 11.4 6.3 5.9 69 2.6 WNW 22 33 12 18 1015.2 - 0.0
28/03:00am 11.3 5.4 5.8 69 2.6 WNW 26 39 14 21 1015.4 1015.4 0.0
28/02:30am 11.3 6.2 5.8 69 2.6 WNW 22 30 12 16 1015.6 - 0.0
28/02:00am 11.0 6.3 6.0 71 2.3 WNW 20 24 11 13 1015.8 - 0.0
28/01:30am 11.2 6.4 5.7 69 2.6 WNW 20 32 11 17 1016.1 - 0.0
28/01:00am 11.5 6.0 6.0 69 2.6 WNW 24 33 13 18 1016.4 - 0.0
28/12:30am 11.3 6.5 5.8 69 2.6 WNW 20 26 11 14 1016.5 - 0.0
28/12:00am 11.6 6.4 5.7 67 2.8 WNW 22 28 12 15 1016.6 1016.7 0.0
 
Date/Time
EST
Temp
°C
App
Temp
°C
Dew
Point
Rel
Hum
%
Delta-T
°C
Wind Press
QNH
hPa
Press
MSL
hPa
Rain
since 9 am
mm
Dir
 
Spd
km/h
Gust
km/h
Spd
kts
Gust
kts
27/11:30pm 11.8 7.0 5.7 66 2.9 WNW 20 28 11 15 1016.7 - 0.0
27/11:00pm 11.8 7.0 5.4 65 3.0 W 20 30 11 16 1016.6 - 0.0
27/10:30pm 11.9 6.3 5.3 64 3.1 WNW 24 37 13 20 1016.6 - 0.0
27/10:00pm 11.6 5.6 5.5 66 2.8 WNW 26 33 14 18 1016.4 - 0.0
27/09:33pm 12.3 5.6 5.5 63 3.2 WNW 30 43 16 23 1016.6 - 0.0
27/09:00pm 12.6 8.5 6.0 64 3.1 NW 17 22 9 12 1016.6 1016.7 0.0
27/08:30pm 13.0 9.3 6.1 63 3.3 WNW 15 24 8 13 1016.4 - 0.0
27/08:00pm 13.2 8.6 6.5 64 3.2 NW 20 32 11 17 1016.0 - 0.0
27/07:30pm 13.4 7.6 6.3 62 3.4 WNW 26 35 14 19 1015.9 - 0.0
27/07:00pm 13.9 8.8 5.8 58 3.9 NW 22 32 12 17 1015.9 - 0.0
27/06:30pm 14.4 9.8 5.7 56 4.2 WNW 19 26 10 14 1015.4 - 0.0
27/06:00pm 15.4 9.5 5.6 52 4.7 W 26 37 14 20 1015.3 1015.3 0.0
27/05:30pm 15.9 11.6 6.9 55 4.5 W 19 30 10 16 1015.0 - 0.0
27/05:00pm 16.4 12.5 7.1 54 4.6 W 17 24 9 13 1014.7 - 0.0
27/04:30pm 17.4 14.0 7.7 53 4.9 WNW 15 22 8 12 1014.5 - 0.0
27/04:00pm 18.1 12.9 7.2 49 5.5 WNW 24 33 13 18 1014.4 - 0.0
27/03:30pm 18.0 13.9 8.8 55 4.8 W 20 26 11 14 1014.3 - 0.0
27/03:00pm 18.8 13.1 6.9 46 6.0 W 26 37 14 20 1014.1 1014.1 0.0
27/02:30pm 19.0 15.5 8.9 52 5.3 WNW 17 22 9 12 1014.4 - 0.0
27/02:00pm 18.8 14.9 9.3 54 5.0 NW 20 30 11 16 1014.7 - 0.0
27/01:30pm 18.9 14.6 8.0 49 5.6 WNW 20 32 11 17 1014.9 - 0.0
27/01:00pm 19.3 15.5 9.8 54 5.1 WNW 20 32 11 17 1015.2 - 0.0
27/12:30pm 18.2 14.5 10.3 60 4.2 W 20 26 11 14 1015.7 - 0.0
27/12:00pm 17.8 14.4 10.4 62 4.0 WNW 19 30 10 16 1016.4 1016.4 0.0
27/11:30am 17.9 15.3 13.2 74 2.7 NNW 19 26 10 14 1017.0 - 0.0
27/11:00am 17.8 15.7 12.5 71 3.0 NW 15 20 8 11 1017.4 - 0.0
27/10:30am 17.1 15.0 12.4 74 2.6 NW 15 20 8 11 1017.8 - 0.0
27/10:00am 16.7 15.0 12.5 76 2.3 WNW 13 15 7 8 1018.1 - 0.0
27/09:30am 16.1 14.8 12.5 79 2.0 NW 11 15 6 8 1018.4 - 0.0
27/09:00am 15.6 14.9 13.3 86 1.3 W 9 13 5 7 1018.5 1018.6 23.2
27/08:30am 14.2 13.4 14.0 99 0.1 WNW 11 15 6 8 1018.9 - 23.2
27/08:00am 13.0 12.2 13.0 100 0.0 NW 9 11 5 6 1018.9 - 23.2
27/07:30am 12.5 12.9 12.5 100 0.0 NW 2 7 1 4 1018.9 - 23.2
27/07:00am 12.1 12.0 12.1 100 0.0 WNW 4 6 2 3 1018.5 - 23.2
27/06:30am 12.5 11.6 12.5 100 0.0 WNW 9 11 5 6 1018.6 - 23.2
27/06:00am 12.6 12.1 12.6 100 0.0 WNW 7 9 4 5 1018.3 1018.4 23.2
27/05:30am 12.6 11.7 12.6 100 0.0 W 9 13 5 7 1018.5 - 23.2
27/05:00am 12.4 11.4 12.4 100 0.0 W 9 11 5 6 1018.6 - 23.2
27/04:30am 12.2 10.8 12.2 100 0.0 WNW 11 15 6 8 1018.8 - 23.2
27/04:00am 11.9 10.0 11.9 100 0.0 NW 13 17 7 9 1018.6 - 23.2
27/03:59am 11.9 10.0 11.9 100 0.0 NW 13 17 7 9 1018.6 - 23.2
27/03:30am 11.3 10.6 11.3 100 0.0 N 6 9 3 5 1017.9 - 23.2
27/03:00am 12.0 10.5 12.0 100 0.0 S 11 15 6 8 1018.4 1018.5 23.2
27/02:30am 12.8 12.0 12.8 100 0.0 W 9 9 5 5 1019.1 - 23.2
27/02:00am 12.8 13.7 12.8 100 0.0 CALM 0 0 0 0 1019.1 - 23.2
27/01:30am 12.9 12.1 12.9 100 0.0 WNW 9 13 5 7 1019.7 - 23.2
27/01:00am 12.8 12.0 12.8 100 0.0 SSW 9 11 5 6 1019.6 - 23.2
27/12:30am 12.3 11.7 12.3 100 0.0 SSW 7 9 4 5 1020.0 - 23.2
27/12:00am 12.9 12.1 12.9 100 0.0 SW 9 13 5 7 1020.3 1020.4 23.2
 
Date/Time
EST
Temp
°C
App
Temp
°C
Dew
Point
Rel
Hum
%
Delta-T
°C
Wind Press
QNH
hPa
Press
MSL
hPa
Rain
since 9 am
mm
Dir
 
Spd
km/h
Gust
km/h
Spd
kts
Gust
kts
26/11:50pm 13.0 11.9 13.0 100 0.0 WSW 11 13 6 7 1020.4 - 23.2
26/11:30pm 13.1 11.6 13.1 100 0.0 SSW 13 15 7 8 1020.5 - 23.2
26/11:00pm 13.2 12.9 13.2 100 0.0 SW 7 9 4 5 1021.0 - 23.2
26/10:34pm 13.2 12.1 13.2 100 0.0 SSW 11 15 6 8 1021.0 - 23.2
26/10:30pm 13.3 12.3 13.3 100 0.0 SSW 11 15 6 8 1021.1 - 23.2
26/10:00pm 13.2 11.0 13.2 100 0.0 SSW 17 20 9 11 1021.3 - 23.2
26/09:30pm 13.5 10.8 13.5 100 0.0 SSW 20 28 11 15 1021.0 - 23.2
26/09:00pm 13.4 11.2 13.4 100 0.0 SSW 17 20 9 11 1021.1 1021.2 23.2
26/08:30pm 13.9 12.3 13.9 100 0.0 SW 15 17 8 9 1021.5 - 23.2
26/08:00pm 14.1 12.9 14.1 100 0.0 SSW 13 17 7 9 1021.5 - 23.2
26/07:30pm 14.0 12.8 14.0 100 0.0 SSW 13 17 7 9 1021.3 - 23.2
26/07:00pm 14.0 12.4 14.0 100 0.0 S 15 19 8 10 1020.7 - 23.2
26/06:46pm 14.2 12.3 14.2 100 0.0 S 17 22 9 12 1020.5 - 23.2
26/06:30pm 14.4 12.2 14.4 100 0.0 S 19 24 10 13 1020.7 - 23.2
26/06:00pm 14.4 12.6 14.4 100 0.0 S 17 24 9 13 1020.3 1020.4 23.2
26/05:37pm 14.4 11.6 14.4 100 0.0 SSE 22 30 12 16 1020.2 - 23.2
26/05:30pm 14.4 11.6 14.4 100 0.0 SSE 22 30 12 16 1020.2 - 23.2
26/05:00pm 14.2 11.4 14.2 100 0.0 S 22 32 12 17 1019.8 - 22.8
26/04:30pm 14.0 10.7 14.0 100 0.0 SSE 24 30 13 16 1019.5 - 21.4
26/04:00pm 14.4 10.9 14.4 100 0.0 S 26 37 14 20 1019.4 - 19.4
26/03:30pm 14.4 10.5 14.4 100 0.0 S 28 44 15 24 1019.5 - 19.0
26/03:16pm 15.1 11.4 14.9 99 0.1 S 28 35 15 19 1019.5 - 18.6
26/03:00pm 15.0 11.3 15.0 100 0.0 S 28 39 15 21 1019.5 1019.6 18.6
26/02:46pm 14.6 10.4 14.6 100 0.0 S 30 43 16 23 1019.4 - 18.6
26/02:36pm 14.4 10.1 14.4 100 0.0 S 30 37 16 20 1019.5 - 18.6
26/02:25pm 14.3 10.0 14.3 100 0.0 S 30 44 16 24 1019.6 - 18.6
26/02:00pm 14.8 10.1 14.8 100 0.0 S 33 50 18 27 1019.6 - 18.6
26/01:30pm 14.8 10.7 14.8 100 0.0 S 30 39 16 21 1019.6 - 18.6
26/01:00pm 14.6 11.1 14.6 100 0.0 S 26 35 14 19 1020.0 - 17.2
26/12:30pm 14.8 11.0 14.8 100 0.0 S 28 43 15 23 1020.1 - 15.8
26/12:00pm 14.2 - 14.4 - - S 28 39 15 21 1020.6 1020.7 14.8
26/11:43am 14.1 9.7 14.1 100 0.0 S 30 50 16 27 1020.9 - 12.8
26/11:30am 14.5 - 14.7 - - S 28 43 15 23 1021.0 - 10.8
26/11:00am 14.3 - 14.5 - - S 22 37 12 20 1021.0 - 10.0
26/10:30am 14.2 - 14.4 - - S 26 37 14 20 1021.1 - 6.8
26/10:00am 13.9 - 14.1 - - SSE 26 37 14 20 1021.0 - 4.2
26/09:30am 14.0 - 14.2 - - S 26 44 14 24 1020.7 - 1.6
26/09:00am 14.0 - 14.2 - - SSE 30 50 16 27 1020.7 1020.8 208.0
26/08:52am 14.2 - 14.4 - - SSE 28 46 15 25 1020.7 - 207.8
26/08:46am 14.0 - 14.2 - - S 28 37 15 20 1020.7 - 207.8
26/08:30am 13.6 - 13.8 - - S 32 50 17 27 1020.5 - 207.6
26/08:15am 13.6 - 13.8 - - S 28 46 15 25 1020.4 - 206.6
26/08:09am 13.7 - 13.9 - - S 28 43 15 23 1020.3 - 205.8
26/08:00am 13.7 - 13.9 - - SSE 17 22 9 12 1020.3 - 205.6
26/07:30am 13.8 - 14.0 - - SSE 30 50 16 27 1019.9 - 200.6
26/07:06am 13.3 - 13.5 - - SSE 30 48 16 26 1019.5 - 196.2
26/07:00am 13.6 - 13.8 - - SSE 28 43 15 23 1019.6 - 194.0
26/06:30am 13.4 7.8 13.4 100 0.0 S 35 46 19 25 1019.0 - 187.4
26/06:03am 13.6 8.7 13.6 100 0.0 S 32 57 17 31 1018.8 - 182.8
26/06:00am 13.5 8.5 13.5 100 0.0 S 32 43 17 23 1018.7 1018.8 182.6
26/05:57am 13.6 8.7 13.6 100 0.0 S 32 44 17 24 1018.8 - 182.0
26/05:40am 13.7 8.8 13.7 100 0.0 S 32 50 17 27 1018.7 - 181.8
26/05:30am 13.9 9.8 13.9 100 0.0 SSE 28 39 15 21 1018.6 - 181.8
26/05:02am 13.9 9.4 13.9 100 0.0 SSE 30 43 16 23 1018.4 - 181.8
26/05:00am 13.8 9.3 13.8 100 0.0 SSE 30 43 16 23 1018.4 - 181.8
26/04:34am 13.7 9.6 13.7 100 0.0 SSE 28 48 15 26 1018.1 - 180.8
26/04:30am 13.8 10.1 13.8 100 0.0 SSE 26 37 14 20 1018.1 - 180.0
26/04:16am 14.0 10.0 14.0 100 0.0 SSE 28 39 15 21 1017.7 - 177.4
26/04:04am 13.9 10.2 13.9 100 0.0 SSE 26 39 14 21 1017.5 - 177.0
26/04:00am 13.9 9.8 13.9 100 0.0 SSE 28 44 15 24 1017.5 - 177.0
26/03:51am 13.8 8.9 13.8 100 0.0 SSE 32 50 17 27 1017.4 - 177.0
26/03:33am 14.2 9.8 14.2 100 0.0 SSE 30 43 16 23 1017.3 - 175.4
26/03:30am 14.3 10.4 14.3 100 0.0 SSE 28 43 15 23 1017.3 - 175.4
26/03:10am 14.1 10.8 14.1 100 0.0 SSE 24 35 13 19 1017.1 - 175.4
26/03:00am 14.1 10.8 14.1 100 0.0 SSE 24 37 13 20 1017.3 1017.4 175.4
26/02:30am 14.0 9.2 14.0 100 0.0 SE 32 41 17 22 1017.4 - 174.0
26/02:15am 14.0 10.0 14.0 100 0.0 SSE 28 46 15 25 1017.4 - 172.4
26/02:00am 14.3 10.4 14.3 100 0.0 SSE 28 37 15 20 1017.5 - 170.0
26/01:30am 14.4 - 14.6 - - SSE 30 44 16 24 1017.4 - 167.6
26/01:04am 14.3 - 14.5 - - SSE 32 43 17 23 1017.4 - 167.4
26/01:03am 14.3 - 14.5 - - SSE 30 39 16 21 1017.3 - 167.4
26/01:00am 14.3 - 14.5 - - SSE 28 39 15 21 1017.3 - 167.4
26/12:54am 14.3 - 14.5 - - SSE 30 41 16 22 1017.3 - 167.2
26/12:49am 14.3 - 14.5 - - SE 32 48 17 26 1017.3 - 167.2
26/12:32am 14.2 8.5 14.2 100 0.0 SE 37 57 20 31 1017.2 - 166.8
26/12:30am 14.4 9.2 14.4 100 0.0 SE 35 52 19 28 1017.3 - 166.4
26/12:00am 14.1 9.3 14.1 100 0.0 SE 32 50 17 27 1017.0 1017.1 161.2
 
Date/Time
EST
Temp
°C
App
Temp
°C
Dew
Point
Rel
Hum
%
Delta-T
°C
Wind Press
QNH
hPa
Press
MSL
hPa
Rain
since 9 am
mm
Dir
 
Spd
km/h
Gust
km/h
Spd
kts
Gust
kts
25/11:30pm 14.1 8.8 14.1 100 0.0 SSE 35 48 19 26 1017.0 - 157.4
25/11:11pm 14.3 9.6 14.3 100 0.0 SSE 32 57 17 31 1017.0 - 154.2
25/11:00pm 13.9 9.8 13.9 100 0.0 SSE 28 43 15 23 1017.1 - 153.6
25/10:31pm 13.7 8.2 13.7 100 0.0 SSE 35 56 19 30 1016.8 - 150.0
25/10:30pm 13.7 8.2 13.7 100 0.0 SSE 35 48 19 26 1016.8 - 149.8
25/10:04pm 13.2 8.1 13.2 100 0.0 SSE 32 50 17 27 1016.8 - 146.8
25/10:00pm 13.0 8.6 13.0 100 0.0 SSE 28 43 15 23 1016.8 - 146.0
25/09:30pm 13.6 8.7 13.6 100 0.0 SSE 32 44 17 24 1016.9 - 140.4
25/09:00pm 13.4 6.1 13.4 100 0.0 SSE 44 72 24 39 1016.4 1016.4 137.0
25/08:30pm 13.0 4.4 13.0 100 0.0 S 50 78 27 42 1016.1 - 130.2
25/08:21pm 12.9 5.1 12.9 100 0.0 S 46 78 25 42 1015.6 - 128.4
25/08:06pm 12.6 6.0 12.6 100 0.0 S 39 57 21 31 1015.7 - 125.2
25/08:00pm 12.2 5.5 12.2 100 0.0 S 39 50 21 27 1015.7 - 124.4
25/07:33pm 11.6 4.3 11.6 100 0.0 SSW 41 59 22 32 1015.3 - 118.2
25/07:30pm 11.5 4.9 11.5 100 0.0 SSW 37 52 20 28 1015.3 - 117.0
25/07:24pm 11.6 6.0 11.6 100 0.0 SSW 32 39 17 21 1015.1 - 114.2
25/07:00pm 12.5 3.4 12.5 100 0.0 S 52 74 28 40 1015.0 - 104.8
25/06:30pm 12.7 4.8 12.7 100 0.0 S 46 65 25 35 1015.0 - 97.0
25/06:00pm 12.7 3.7 12.7 100 0.0 S 52 82 28 44 1013.9 1013.9 89.8
25/05:30pm 12.9 5.1 12.9 100 0.0 S 46 69 25 37 1013.3 - 85.6
25/05:05pm 13.0 4.4 13.0 100 0.0 S 50 74 27 40 1012.6 - 83.2
25/05:00pm 13.0 4.8 13.0 100 0.0 S 48 65 26 35 1012.5 - 82.6
25/04:30pm 13.4 5.4 13.4 100 0.0 S 48 74 26 40 1012.2 - 81.0
25/04:00pm 13.6 6.4 13.6 100 0.0 S 44 69 24 37 1012.5 - 76.6
25/03:39pm 13.8 - 14.0 - - S 39 65 21 35 1013.0 - 73.0
25/03:30pm 13.8 - 14.0 - - SSE 37 54 20 29 1013.0 - 71.4
25/03:00pm 13.6 8.5 13.6 100 0.0 S 33 54 18 29 1013.1 1013.2 66.4
25/02:58pm 13.5 8.0 13.5 100 0.0 S 35 54 19 29 1013.1 - 66.4
25/02:52pm 12.9 5.6 12.9 100 0.0 S 43 54 23 29 1013.0 - 65.6
25/02:30pm 12.1 7.4 12.1 100 0.0 SW 28 52 15 28 1012.9 - 61.8
25/02:29pm 12.3 7.7 12.3 100 0.0 SW 28 52 15 28 1012.8 - 61.6
25/02:22pm 12.3 7.7 12.3 100 0.0 SW 28 35 15 19 1012.8 - 60.0
25/02:20pm 12.3 7.3 12.3 100 0.0 SW 30 48 16 26 1012.8 - 59.4
25/02:00pm 11.8 4.6 11.8 100 0.0 SW 41 56 22 30 1012.8 - 57.8
25/01:42pm 11.8 4.2 11.8 100 0.0 SW 43 57 23 31 1012.7 - 56.2
25/01:28pm 11.7 6.2 11.7 100 0.0 SSW 32 50 17 27 1013.0 - 55.0
25/01:00pm 11.6 3.4 11.6 100 0.0 SSW 46 61 25 33 1013.0 - 48.0
25/12:30pm 11.6 3.7 11.6 100 0.0 SSW 44 65 24 35 1013.1 - 39.4
25/12:10pm 11.6 1.8 11.6 100 0.0 SW 54 74 29 40 1012.9 - 33.4
25/12:00pm 11.6 3.0 11.6 100 0.0 SSW 48 72 26 39 1013.4 1013.4 30.8
25/11:53am 11.7 2.0 11.7 100 0.0 SSW 54 72 29 39 1013.6 - 29.2
25/11:49am 11.7 0.6 11.7 100 0.0 SSW 61 72 33 39 1013.5 - 28.4
25/11:30am 11.7 4.8 11.7 100 0.0 SSW 39 65 21 35 1014.2 - 23.8
25/11:00am 11.8 3.6 11.8 100 0.0 SSW 46 70 25 38 1013.9 - 18.6
25/10:30am 12.0 3.1 12.0 100 0.0 SSW 50 76 27 41 1014.4 - 11.0
25/10:00am 12.5 5.1 12.5 100 0.0 SSW 43 61 23 33 1014.6 - 6.4
25/09:39am 12.7 6.5 12.7 100 0.0 SSW 37 59 20 32 1014.6 - 3.8
25/09:30am 12.8 8.0 12.8 100 0.0 SSW 30 43 16 23 1014.8 - 2.8
25/09:04am 13.1 7.4 13.1 100 0.0 SSW 35 54 19 29 1014.9 - 0.2
25/09:00am 13.0 7.7 13.0 100 0.0 SSW 33 48 18 26 1014.9 1014.9 182.0
25/08:54am 13.0 6.9 13.0 100 0.0 SSW 37 52 20 28 1015.0 - 181.6
25/08:30am 13.0 7.3 13.0 100 0.0 S 35 54 19 29 1015.3 - 179.6
25/08:24am 12.9 7.2 12.9 100 0.0 S 35 54 19 29 1015.3 - 179.6
25/08:00am 12.6 7.3 12.6 100 0.0 S 32 44 17 24 1015.4 - 178.8
25/07:46am 12.4 7.1 12.4 100 0.0 SSW 32 46 17 25 1015.0 - 178.0
25/07:41am 12.4 7.8 12.4 100 0.0 SSW 28 46 15 25 1015.2 - 177.8
25/07:30am 12.1 7.4 12.1 100 0.0 SSW 28 41 15 22 1015.2 - 177.2
25/07:00am 11.5 7.0 11.5 100 0.0 SSW 26 35 14 19 1015.2 - 174.2
25/06:42am 11.6 6.4 11.6 100 0.0 SSW 30 43 16 23 1014.9 - 171.0
25/06:30am 11.2 5.5 11.2 100 0.0 SSW 32 43 17 23 1014.9 - 169.0
25/06:15am 11.1 5.8 11.1 100 0.0 SSW 30 43 16 23 1014.9 - 167.2
25/06:08am 11.2 5.5 11.2 100 0.0 SSW 32 39 17 21 1014.9 - 165.8
25/06:00am 10.9 5.1 10.9 100 0.0 SSW 32 44 17 24 1014.9 1014.9 164.4
25/05:30am 10.7 4.3 10.7 100 0.0 SSW 35 44 19 24 1014.7 - 160.6
25/05:14am 10.8 4.0 10.8 100 0.0 SSW 37 48 20 26 1014.7 - 158.2

Other Formats:

Comma delimited format used in spreadsheet applications
http://www.bom.gov.au/fwo/IDN60801/IDN60801.94750.axf

JavaScript Object Notation format (JSON) in row-major order
http://www.bom.gov.au/fwo/IDN60801/IDN60801.94750.json